Thunder radar more information blitzortung!


Radar de pluja more information rain snow radar


Visita la nostra xarxa de llocs de meteo:

Template documentation
and downloads

And another site



No particular awareness of the weather is required.    There are no Weather-warnings

Pagina Historial Weather Underground text

Diari Resum Juny 14, 2017 Unitats:  Tant    Imperial   Mètric
« Previous Dia
SegĂźent Dia »
Diari Setmana Mensual Anual Personalitzada
  Maxima: Minima: Media:
Temperatura: 95.5 °F /  35.3 °C 66.2 °F /  19.0 °C 84.9 °F /  29.4 °C
Punt de rosada: 56.5 °F /  13.6 °C 41.2 °F /  5.1 °C 48.9 °F /  9.4 °C
Humitat: 58 % 22 % 30 %
Wind Speed: 13.8 mph /  22.2 km/h - 5.2 mph /  8.4 km/h
RĂ fegues de vent: 13.8 mph /  22.2 km/h - -
Vent:- - SSW
Pression baro: 29.9 in /  1013.8 hPa 29.8 in /  1009.0 hPa -
Precipitacions: 0 in /  0.0 mm    
Historical Graphs
 
 
Dades de taula per Juny 14, 2017
Temps Temperatura Punt de rosada Pression baro Vent Wind Speed RĂ fegues de vent Humitat Rainfall Rate (Hourly)
00:02 75.4 °F /  24.1 °C 51.3 °F /  10.7 °C 29.9 in /  1011.7 hPa SW 1.2 mph /  1.9 km/h 1.4 mph /  2.3 km/h 43 % 0 in /  0.0 mm
01:45 66.2 °F /  19.0 °C 51.1 °F /  10.6 °C 29.9 in /  1013.8 hPa SW 1 mph /  1.6 km/h 1 mph /  1.6 km/h 58 % 0 in /  0.0 mm
01:55 66.4 °F /  19.1 °C 51.3 °F /  10.7 °C 29.9 in /  1013.8 hPa Calm   1 mph /  1.6 km/h 58 % 0 in /  0.0 mm
02:05 67.6 °F /  19.8 °C 52.3 °F /  11.3 °C 29.9 in /  1013.8 hPa SW 1 mph /  1.6 km/h 1 mph /  1.6 km/h 58 % 0 in /  0.0 mm
02:15 68 °F /  20.0 °C 51.6 °F /  10.9 °C 29.9 in /  1013.8 hPa Calm   2 mph /  3.2 km/h 56 % 0 in /  0.0 mm
02:25 69.3 °F /  20.7 °C 52.3 °F /  11.3 °C 29.9 in /  1013.8 hPa ENE 1 mph /  1.6 km/h 1 mph /  1.6 km/h 55 % 0 in /  0.0 mm
02:35 69.8 °F /  21.0 °C 52.3 °F /  11.3 °C 29.9 in /  1013.8 hPa ENE 1 mph /  1.6 km/h 1 mph /  1.6 km/h 54 % 0 in /  0.0 mm
02:45 70.3 °F /  21.3 °C 52.3 °F /  11.3 °C 29.9 in /  1013.8 hPa Calm   1 mph /  1.6 km/h 53 % 0 in /  0.0 mm
02:55 70.9 °F /  21.6 °C 53.4 °F /  11.9 °C 29.9 in /  1013.8 hPa Calm   1 mph /  1.6 km/h 54 % 0 in /  0.0 mm
03:05 71.4 °F /  21.9 °C 52.9 °F /  11.6 °C 29.9 in /  1013.8 hPa ENE 2 mph /  3.2 km/h 2 mph /  3.2 km/h 52 % 0 in /  0.0 mm
03:15 71.6 °F /  22.0 °C 52.5 °F /  11.4 °C 29.9 in /  1013.8 hPa ENE 1 mph /  1.6 km/h 2 mph /  3.2 km/h 51 % 0 in /  0.0 mm
03:25 72.5 °F /  22.5 °C 53.2 °F /  11.8 °C 29.9 in /  1013.8 hPa Calm   2 mph /  3.2 km/h 51 % 0 in /  0.0 mm
03:35 73 °F /  22.8 °C 53.8 °F /  12.1 °C 29.9 in /  1013.8 hPa SSW 1 mph /  1.6 km/h 2 mph /  3.2 km/h 51 % 0 in /  0.0 mm
03:45 73.9 °F /  23.3 °C 53.1 °F /  11.7 °C 29.9 in /  1013.8 hPa NE 2 mph /  3.2 km/h 4 mph /  6.4 km/h 48 % 0 in /  0.0 mm
03:55 75.4 °F /  24.1 °C 54.3 °F /  12.4 °C 29.9 in /  1013.8 hPa ENE 1 mph /  1.6 km/h 2 mph /  3.2 km/h 48 % 0 in /  0.0 mm
04:05 76.1 °F /  24.5 °C 54.3 °F /  12.4 °C 29.9 in /  1013.8 hPa East 1 mph /  1.6 km/h 2 mph /  3.2 km/h 47 % 0 in /  0.0 mm
04:15 77 °F /  25.0 °C 54.7 °F /  12.6 °C 29.9 in /  1013.8 hPa SSE 1 mph /  1.6 km/h 2 mph /  3.2 km/h 46 % 0 in /  0.0 mm
04:25 76.6 °F /  24.8 °C 54.3 °F /  12.4 °C 29.9 in /  1012.8 hPa SW 2 mph /  3.2 km/h 2 mph /  3.2 km/h 46 % 0 in /  0.0 mm
04:35 77.7 °F /  25.4 °C 54.7 °F /  12.6 °C 29.9 in /  1012.8 hPa Calm   2 mph /  3.2 km/h 45 % 0 in /  0.0 mm
04:45 79.3 °F /  26.3 °C 55.6 °F /  13.1 °C 29.9 in /  1012.8 hPa SW 2 mph /  3.2 km/h 2 mph /  3.2 km/h 44 % 0 in /  0.0 mm
04:55 80.6 °F /  27.0 °C 55.9 °F /  13.3 °C 29.9 in /  1013.8 hPa SSE 1 mph /  1.6 km/h 2 mph /  3.2 km/h 43 % 0 in /  0.0 mm
05:05 81.7 °F /  27.6 °C 56.5 °F /  13.6 °C 29.9 in /  1013.8 hPa ESE 2 mph /  3.2 km/h 3 mph /  4.8 km/h 42 % 0 in /  0.0 mm
05:15 82.8 °F /  28.2 °C 55.9 °F /  13.3 °C 29.9 in /  1012.8 hPa SE 3 mph /  4.8 km/h 3 mph /  4.8 km/h 40 % 0 in /  0.0 mm
05:25 84 °F /  28.9 °C 56.5 °F /  13.6 °C 29.9 in /  1013.8 hPa SSE 2 mph /  3.2 km/h 2 mph /  3.2 km/h 39 % 0 in /  0.0 mm
05:35 84 °F /  28.9 °C 55.8 °F /  13.2 °C 29.9 in /  1013.8 hPa SSW 3 mph /  4.8 km/h 4 mph /  6.4 km/h 38 % 0 in /  0.0 mm
10:41 84.4 °F /  29.1 °C 54.5 °F /  12.5 °C 29.9 in /  1012.8 hPa SW 5.8 mph /  9.3 km/h 5.8 mph /  9.3 km/h 36 % 0 in /  0.0 mm
10:46 84.4 °F /  29.1 °C 54.5 °F /  12.5 °C 29.9 in /  1011.7 hPa WSW 4.6 mph /  7.4 km/h 4.6 mph /  7.4 km/h 36 % 0 in /  0.0 mm
10:51 85.1 °F /  29.5 °C 55 °F /  12.8 °C 29.9 in /  1011.7 hPa SW 3.3 mph /  5.3 km/h 3.3 mph /  5.3 km/h 36 % 0 in /  0.0 mm
10:56 86.5 °F /  30.3 °C 55.6 °F /  13.1 °C 29.9 in /  1011.7 hPa West 2.3 mph /  3.7 km/h 2.3 mph /  3.7 km/h 35 % 0 in /  0.0 mm
11:01 87.1 °F /  30.6 °C 55.2 °F /  12.9 °C 29.9 in /  1012.8 hPa WNW 6.9 mph /  11.1 km/h 6.9 mph /  11.1 km/h 34 % 0 in /  0.0 mm
11:06 87.3 °F /  30.7 °C 55.6 °F /  13.1 °C 29.9 in /  1012.8 hPa SSW 6.2 mph /  10.0 km/h 6.2 mph /  10.0 km/h 34 % 0 in /  0.0 mm
11:11 87.1 °F /  30.6 °C 54.5 °F /  12.5 °C 29.9 in /  1012.8 hPa SSE 5.8 mph /  9.3 km/h 5.8 mph /  9.3 km/h 33 % 0 in /  0.0 mm
11:16 88 °F /  31.1 °C 54.3 °F /  12.4 °C 29.9 in /  1011.7 hPa WNW 6.9 mph /  11.1 km/h 6.9 mph /  11.1 km/h 32 % 0 in /  0.0 mm
11:21 88.3 °F /  31.3 °C 54 °F /  12.2 °C 29.9 in /  1011.7 hPa South 5.8 mph /  9.3 km/h 5.8 mph /  9.3 km/h 31 % 0 in /  0.0 mm
11:26 88 °F /  31.1 °C 53.6 °F /  12.0 °C 29.9 in /  1011.7 hPa SW 8.1 mph /  13.0 km/h 8.1 mph /  13.0 km/h 31 % 0 in /  0.0 mm
11:31 88 °F /  31.1 °C 52.7 °F /  11.5 °C 29.9 in /  1011.7 hPa SW 8.1 mph /  13.0 km/h 8.1 mph /  13.0 km/h 30 % 0 in /  0.0 mm
11:36 88.2 °F /  31.2 °C 52.9 °F /  11.6 °C 29.9 in /  1011.7 hPa SW 8.1 mph /  13.0 km/h 8.1 mph /  13.0 km/h 30 % 0 in /  0.0 mm
11:41 88.3 °F /  31.3 °C 53.1 °F /  11.7 °C 29.9 in /  1011.7 hPa SW 8.7 mph /  14.0 km/h 8.7 mph /  14.0 km/h 30 % 0 in /  0.0 mm
11:46 88.7 °F /  31.5 °C 52.3 °F /  11.3 °C 29.9 in /  1011.7 hPa SW 5.8 mph /  9.3 km/h 5.8 mph /  9.3 km/h 29 % 0 in /  0.0 mm
11:51 88.9 °F /  31.6 °C 52.5 °F /  11.4 °C 29.9 in /  1011.7 hPa SW 8.1 mph /  13.0 km/h 8.7 mph /  14.0 km/h 29 % 0 in /  0.0 mm
11:56 88.5 °F /  31.4 °C 51.3 °F /  10.7 °C 29.9 in /  1011.7 hPa WSW 6.9 mph /  11.1 km/h 6.9 mph /  11.1 km/h 28 % 0 in /  0.0 mm
12:01 88.9 °F /  31.6 °C 52.5 °F /  11.4 °C 29.9 in /  1011.7 hPa SW 11.5 mph /  18.5 km/h 11.5 mph /  18.5 km/h 29 % 0 in /  0.0 mm
12:06 89.2 °F /  31.8 °C 52.9 °F /  11.6 °C 29.9 in /  1011.7 hPa SW 5.6 mph /  9.0 km/h 5.6 mph /  9.0 km/h 29 % 0 in /  0.0 mm
12:11 88.9 °F /  31.6 °C 51.6 °F /  10.9 °C 29.9 in /  1011.7 hPa SW 9.2 mph /  14.8 km/h 9.2 mph /  14.8 km/h 28 % 0 in /  0.0 mm
12:16 89.4 °F /  31.9 °C 52 °F /  11.1 °C 29.9 in /  1011.7 hPa SSW 8.1 mph /  13.0 km/h 8.1 mph /  13.0 km/h 28 % 0 in /  0.0 mm
12:21 89.6 °F /  32.0 °C 51.3 °F /  10.7 °C 29.9 in /  1011.7 hPa SW 8.1 mph /  13.0 km/h 8.1 mph /  13.0 km/h 27 % 0 in /  0.0 mm
12:26 90.1 °F /  32.3 °C 51.6 °F /  10.9 °C 29.9 in /  1011.7 hPa SW 8.1 mph /  13.0 km/h 8.1 mph /  13.0 km/h 27 % 0 in /  0.0 mm
12:31 90.7 °F /  32.6 °C 52.2 °F /  11.2 °C 29.9 in /  1011.7 hPa WSW 6.9 mph /  11.1 km/h 6.9 mph /  11.1 km/h 27 % 0 in /  0.0 mm
12:32 90.7 °F /  32.6 °C 52.2 °F /  11.2 °C 29.9 in /  1011.7 hPa SW 5.9 mph /  9.5 km/h 5.9 mph /  9.5 km/h 27 % 0 in /  0.0 mm
12:37 90.9 °F /  32.7 °C 52.3 °F /  11.3 °C 29.9 in /  1011.7 hPa South 5.8 mph /  9.3 km/h 5.8 mph /  9.3 km/h 27 % 0 in /  0.0 mm
12:42 90.5 °F /  32.5 °C 52 °F /  11.1 °C 29.9 in /  1011.7 hPa SSW 10.4 mph /  16.7 km/h 10.4 mph /  16.7 km/h 27 % 0 in /  0.0 mm
12:47 90.5 °F /  32.5 °C 50.9 °F /  10.5 °C 29.9 in /  1011.7 hPa SSW 13.8 mph /  22.2 km/h 13.8 mph /  22.2 km/h 26 % 0 in /  0.0 mm
12:52 90.5 °F /  32.5 °C 50.9 °F /  10.5 °C 29.9 in /  1011.7 hPa SSW 9.2 mph /  14.8 km/h 9.2 mph /  14.8 km/h 26 % 0 in /  0.0 mm
12:57 91.4 °F /  33.0 °C 51.6 °F /  10.9 °C 29.9 in /  1011.7 hPa SSW 5.9 mph /  9.5 km/h 5.9 mph /  9.5 km/h 26 % 0 in /  0.0 mm
13:02 91.6 °F /  33.1 °C 51.8 °F /  11.0 °C 29.9 in /  1011.7 hPa SSE 8.1 mph /  13.0 km/h 8.1 mph /  13.0 km/h 26 % 0 in /  0.0 mm
13:07 93 °F /  33.9 °C 53.1 °F /  11.7 °C 29.9 in /  1011.7 hPa SSW 2.9 mph /  4.7 km/h 2.9 mph /  4.7 km/h 26 % 0 in /  0.0 mm
13:12 92.5 °F /  33.6 °C 52.5 °F /  11.4 °C 29.9 in /  1011.7 hPa South 12.1 mph /  19.5 km/h 12.1 mph /  19.5 km/h 26 % 0 in /  0.0 mm
13:17 92.3 °F /  33.5 °C 52.5 °F /  11.4 °C 29.9 in /  1011.7 hPa SW 9.2 mph /  14.8 km/h 9.2 mph /  14.8 km/h 26 % 0 in /  0.0 mm
13:22 92.5 °F /  33.6 °C 52.5 °F /  11.4 °C 29.9 in /  1011.7 hPa SSE 5.8 mph /  9.3 km/h 5.8 mph /  9.3 km/h 26 % 0 in /  0.0 mm
13:27 92.7 °F /  33.7 °C 52.9 °F /  11.6 °C 29.9 in /  1011.7 hPa WSW 10.4 mph /  16.7 km/h 10.4 mph /  16.7 km/h 26 % 0 in /  0.0 mm
13:32 92.8 °F /  33.8 °C 51.8 °F /  11.0 °C 29.9 in /  1011.7 hPa SW 7.6 mph /  12.2 km/h 7.6 mph /  12.2 km/h 25 % 0 in /  0.0 mm
13:37 92.8 °F /  33.8 °C 51.8 °F /  11.0 °C 29.9 in /  1011.7 hPa SSW 8.1 mph /  13.0 km/h 8.1 mph /  13.0 km/h 25 % 0 in /  0.0 mm
13:42 94.1 °F /  34.5 °C 52.9 °F /  11.6 °C 29.9 in /  1011.7 hPa WSW 5.8 mph /  9.3 km/h 6 mph /  9.7 km/h 25 % 0 in /  0.0 mm
13:47 93.2 °F /  34.0 °C 52.2 °F /  11.2 °C 29.8 in /  1010.7 hPa South 5.6 mph /  9.0 km/h 5.6 mph /  9.0 km/h 25 % 0 in /  0.0 mm
13:52 93.2 °F /  34.0 °C 52.2 °F /  11.2 °C 29.8 in /  1010.7 hPa South 6.9 mph /  11.1 km/h 6.9 mph /  11.1 km/h 25 % 0 in /  0.0 mm
13:57 93.2 °F /  34.0 °C 51.1 °F /  10.6 °C 29.8 in /  1010.7 hPa South 6.9 mph /  11.1 km/h 6.9 mph /  11.1 km/h 24 % 0 in /  0.0 mm
14:02 93.2 °F /  34.0 °C 51.1 °F /  10.6 °C 29.9 in /  1011.7 hPa ESE 11.5 mph /  18.5 km/h 11.5 mph /  18.5 km/h 24 % 0 in /  0.0 mm
14:07 94.1 °F /  34.5 °C 52.9 °F /  11.6 °C 29.9 in /  1011.7 hPa South 9.2 mph /  14.8 km/h 9.2 mph /  14.8 km/h 25 % 0 in /  0.0 mm
14:12 93 °F /  33.9 °C 50.9 °F /  10.5 °C 29.9 in /  1011.7 hPa SW 11.5 mph /  18.5 km/h 11.5 mph /  18.5 km/h 24 % 0 in /  0.0 mm
14:17 92.8 °F /  33.8 °C 50.7 °F /  10.4 °C 29.9 in /  1011.7 hPa SSW 10.5 mph /  16.9 km/h 10.5 mph /  16.9 km/h 24 % 0 in /  0.0 mm
14:22 93 °F /  33.9 °C 50.9 °F /  10.5 °C 29.9 in /  1011.7 hPa WSW 6.9 mph /  11.1 km/h 6.9 mph /  11.1 km/h 24 % 0 in /  0.0 mm
14:27 93.6 °F /  34.2 °C 52.5 °F /  11.4 °C 29.9 in /  1011.7 hPa SSW 5.8 mph /  9.3 km/h 5.8 mph /  9.3 km/h 25 % 0 in /  0.0 mm
14:32 93 °F /  33.9 °C 50.9 °F /  10.5 °C 29.9 in /  1011.7 hPa South 12.7 mph /  20.4 km/h 12.7 mph /  20.4 km/h 24 % 0 in /  0.0 mm
14:37 93.9 °F /  34.4 °C 51.6 °F /  10.9 °C 29.9 in /  1011.7 hPa South 5.8 mph /  9.3 km/h 5.8 mph /  9.3 km/h 24 % 0 in /  0.0 mm
14:42 93.4 °F /  34.1 °C 51.3 °F /  10.7 °C 29.9 in /  1011.7 hPa WSW 8.1 mph /  13.0 km/h 8.1 mph /  13.0 km/h 24 % 0 in /  0.0 mm
14:47 93.6 °F /  34.2 °C 51.3 °F /  10.7 °C 29.9 in /  1011.7 hPa SW 10.4 mph /  16.7 km/h 10.4 mph /  16.7 km/h 24 % 0 in /  0.0 mm
14:52 94.1 °F /  34.5 °C 51.8 °F /  11.0 °C 29.9 in /  1011.7 hPa SSW 5.8 mph /  9.3 km/h 5.8 mph /  9.3 km/h 24 % 0 in /  0.0 mm
14:57 94.6 °F /  34.8 °C 52.2 °F /  11.2 °C 29.9 in /  1011.7 hPa SSW 9.2 mph /  14.8 km/h 9.2 mph /  14.8 km/h 24 % 0 in /  0.0 mm
15:02 93.9 °F /  34.4 °C 50.5 °F /  10.3 °C 29.9 in /  1011.7 hPa SSW 12.7 mph /  20.4 km/h 12.7 mph /  20.4 km/h 23 % 0 in /  0.0 mm
15:07 93.7 °F /  34.3 °C 51.4 °F /  10.8 °C 29.9 in /  1011.7 hPa SW 8.7 mph /  14.0 km/h 8.7 mph /  14.0 km/h 24 % 0 in /  0.0 mm
15:12 93.7 °F /  34.3 °C 51.4 °F /  10.8 °C 29.9 in /  1011.7 hPa SSW 6.2 mph /  10.0 km/h 6.2 mph /  10.0 km/h 24 % 0 in /  0.0 mm
15:17 93.6 °F /  34.2 °C 51.3 °F /  10.7 °C 29.9 in /  1011.7 hPa WSW 5.8 mph /  9.3 km/h 5.8 mph /  9.3 km/h 24 % 0 in /  0.0 mm
15:22 94.6 °F /  34.8 °C 51.1 °F /  10.6 °C 29.9 in /  1011.7 hPa SSW 6 mph /  9.7 km/h 6 mph /  9.7 km/h 23 % 0 in /  0.0 mm
15:27 95 °F /  35.0 °C 51.4 °F /  10.8 °C 29.9 in /  1011.7 hPa SSE 4.6 mph /  7.4 km/h 4.6 mph /  7.4 km/h 23 % 0 in /  0.0 mm
15:32 95 °F /  35.0 °C 50.2 °F /  10.1 °C 29.9 in /  1011.7 hPa SSW 9.2 mph /  14.8 km/h 9.2 mph /  14.8 km/h 22 % 0 in /  0.0 mm
15:37 94.6 °F /  34.8 °C 52.2 °F /  11.2 °C 29.9 in /  1011.7 hPa SW 8.1 mph /  13.0 km/h 8.1 mph /  13.0 km/h 24 % 0 in /  0.0 mm
15:42 94.8 °F /  34.9 °C 51.3 °F /  10.7 °C 29.9 in /  1011.7 hPa West 9.2 mph /  14.8 km/h 9.2 mph /  14.8 km/h 23 % 0 in /  0.0 mm
15:47 94.8 °F /  34.9 °C 51.3 °F /  10.7 °C 29.8 in /  1010.7 hPa SW 10 mph /  16.1 km/h 10 mph /  16.1 km/h 23 % 0 in /  0.0 mm
15:52 94.3 °F /  34.6 °C 50.7 °F /  10.4 °C 29.8 in /  1010.7 hPa SW 8.1 mph /  13.0 km/h 8.1 mph /  13.0 km/h 23 % 0 in /  0.0 mm
15:57 94.3 °F /  34.6 °C 50.7 °F /  10.4 °C 29.8 in /  1010.7 hPa SSE 6.9 mph /  11.1 km/h 6.9 mph /  11.1 km/h 23 % 0 in /  0.0 mm
16:02 94.8 °F /  34.9 °C 51.3 °F /  10.7 °C 29.8 in /  1010.7 hPa SW 7.6 mph /  12.2 km/h 7.6 mph /  12.2 km/h 23 % 0 in /  0.0 mm
16:07 94.8 °F /  34.9 °C 51.3 °F /  10.7 °C 29.8 in /  1010.7 hPa WSW 10.4 mph /  16.7 km/h 10.4 mph /  16.7 km/h 23 % 0 in /  0.0 mm
16:12 95.5 °F /  35.3 °C 50.5 °F /  10.3 °C 29.8 in /  1010.7 hPa SSW 4.6 mph /  7.4 km/h 4.6 mph /  7.4 km/h 22 % 0 in /  0.0 mm
16:17 95.4 °F /  35.2 °C 51.6 °F /  10.9 °C 29.8 in /  1010.7 hPa SW 6.9 mph /  11.1 km/h 6.9 mph /  11.1 km/h 23 % 0 in /  0.0 mm
16:22 95.2 °F /  35.1 °C 51.4 °F /  10.8 °C 29.8 in /  1010.7 hPa SSW 8.1 mph /  13.0 km/h 8.1 mph /  13.0 km/h 23 % 0 in /  0.0 mm
16:27 95 °F /  35.0 °C 50.2 °F /  10.1 °C 29.8 in /  1010.7 hPa SW 9.2 mph /  14.8 km/h 9.2 mph /  14.8 km/h 22 % 0 in /  0.0 mm
16:32 95.2 °F /  35.1 °C 50.4 °F /  10.2 °C 29.8 in /  1010.7 hPa SW 9.2 mph /  14.8 km/h 9.2 mph /  14.8 km/h 22 % 0 in /  0.0 mm
16:37 94.8 °F /  34.9 °C 51.3 °F /  10.7 °C 29.8 in /  1010.7 hPa SSE 5.8 mph /  9.3 km/h 5.8 mph /  9.3 km/h 23 % 0 in /  0.0 mm
16:42 93.9 °F /  34.4 °C 50.5 °F /  10.3 °C 29.8 in /  1010.7 hPa SSE 6.9 mph /  11.1 km/h 6.9 mph /  11.1 km/h 23 % 0 in /  0.0 mm
16:47 93.6 °F /  34.2 °C 50.2 °F /  10.1 °C 29.8 in /  1010.7 hPa SSW 10.4 mph /  16.7 km/h 10.4 mph /  16.7 km/h 23 % 0 in /  0.0 mm
16:52 93.9 °F /  34.4 °C 50.5 °F /  10.3 °C 29.8 in /  1010.7 hPa SW 6.9 mph /  11.1 km/h 6.9 mph /  11.1 km/h 23 % 0 in /  0.0 mm
16:57 94.5 °F /  34.7 °C 50.9 °F /  10.5 °C 29.8 in /  1010.7 hPa SW 12.7 mph /  20.4 km/h 12.7 mph /  20.4 km/h 23 % 0 in /  0.0 mm
17:02 93 °F /  33.9 °C 49.6 °F /  9.8 °C 29.8 in /  1010.7 hPa WSW 10.4 mph /  16.7 km/h 10.4 mph /  16.7 km/h 23 % 0 in /  0.0 mm
17:07 93 °F /  33.9 °C 49.6 °F /  9.8 °C 29.8 in /  1010.7 hPa SW 9.2 mph /  14.8 km/h 9.2 mph /  14.8 km/h 23 % 0 in /  0.0 mm
17:12 93.7 °F /  34.3 °C 51.4 °F /  10.8 °C 29.8 in /  1010.7 hPa WSW 7.8 mph /  12.6 km/h 7.8 mph /  12.6 km/h 24 % 0 in /  0.0 mm
17:17 93 °F /  33.9 °C 50.9 °F /  10.5 °C 29.8 in /  1010.0 hPa SSW 9.2 mph /  14.8 km/h 9.2 mph /  14.8 km/h 24 % 0 in /  0.0 mm
17:22 93.2 °F /  34.0 °C 51.1 °F /  10.6 °C 29.8 in /  1010.0 hPa SSW 8.1 mph /  13.0 km/h 8.1 mph /  13.0 km/h 24 % 0 in /  0.0 mm
17:27 93.7 °F /  34.3 °C 51.4 °F /  10.8 °C 29.8 in /  1010.0 hPa West 8.1 mph /  13.0 km/h 8.1 mph /  13.0 km/h 24 % 0 in /  0.0 mm
17:32 93.4 °F /  34.1 °C 51.3 °F /  10.7 °C 29.8 in /  1010.0 hPa SW 6.9 mph /  11.1 km/h 6.9 mph /  11.1 km/h 24 % 0 in /  0.0 mm
17:37 93.6 °F /  34.2 °C 51.3 °F /  10.7 °C 29.8 in /  1010.0 hPa SW 4.9 mph /  7.9 km/h 4.9 mph /  7.9 km/h 24 % 0 in /  0.0 mm
17:42 93.4 °F /  34.1 °C 51.3 °F /  10.7 °C 29.8 in /  1010.0 hPa SSW 10.4 mph /  16.7 km/h 10.4 mph /  16.7 km/h 24 % 0 in /  0.0 mm
17:47 92.7 °F /  33.7 °C 50.5 °F /  10.3 °C 29.8 in /  1010.0 hPa SSE 11.5 mph /  18.5 km/h 11.5 mph /  18.5 km/h 24 % 0 in /  0.0 mm
17:52 92.8 °F /  33.8 °C 50.7 °F /  10.4 °C 29.8 in /  1010.0 hPa WSW 8.1 mph /  13.0 km/h 8.1 mph /  13.0 km/h 24 % 0 in /  0.0 mm
17:57 93 °F /  33.9 °C 50.9 °F /  10.5 °C 29.8 in /  1010.0 hPa East 8.1 mph /  13.0 km/h 8.1 mph /  13.0 km/h 24 % 0 in /  0.0 mm
18:02 92.7 °F /  33.7 °C 49.5 °F /  9.7 °C 29.8 in /  1010.0 hPa SE 6.9 mph /  11.1 km/h 6.9 mph /  11.1 km/h 23 % 0 in /  0.0 mm
18:07 92.5 °F /  33.6 °C 49.3 °F /  9.6 °C 29.8 in /  1010.0 hPa South 5.8 mph /  9.3 km/h 5.8 mph /  9.3 km/h 23 % 0 in /  0.0 mm
18:12 92.3 °F /  33.5 °C 50.4 °F /  10.2 °C 29.8 in /  1010.0 hPa South 6.9 mph /  11.1 km/h 6.9 mph /  11.1 km/h 24 % 0 in /  0.0 mm
18:17 92.7 °F /  33.7 °C 50.5 °F /  10.3 °C 29.8 in /  1010.0 hPa SW 5.8 mph /  9.3 km/h 5.8 mph /  9.3 km/h 24 % 0 in /  0.0 mm
18:22 92.1 °F /  33.4 °C 50.2 °F /  10.1 °C 29.8 in /  1010.0 hPa WSW 8.1 mph /  13.0 km/h 8.1 mph /  13.0 km/h 24 % 0 in /  0.0 mm
18:27 91.9 °F /  33.3 °C 50 °F /  10.0 °C 29.8 in /  1010.0 hPa WSW 5.8 mph /  9.3 km/h 6 mph /  9.7 km/h 24 % 0 in /  0.0 mm
18:32 91.6 °F /  33.1 °C 49.6 °F /  9.8 °C 29.8 in /  1009.0 hPa SW 5.6 mph /  9.0 km/h 5.6 mph /  9.0 km/h 24 % 0 in /  0.0 mm
18:35 77.5 °F /  25.3 °C 41.7 °F /  5.4 °C 29.9 in /  1012.8 hPa WSW 1 mph /  1.6 km/h 2 mph /  3.2 km/h 28 % 0 in /  0.0 mm
18:37 91.4 °F /  33.0 °C 48.4 °F /  9.1 °C 29.8 in /  1009.0 hPa SW 10.4 mph /  16.7 km/h 10.4 mph /  16.7 km/h 23 % 0 in /  0.0 mm
18:42 91.2 °F /  32.9 °C 49.5 °F /  9.7 °C 29.8 in /  1009.0 hPa SSW 5.9 mph /  9.5 km/h 5.9 mph /  9.5 km/h 24 % 0 in /  0.0 mm
18:45 77.4 °F /  25.2 °C 41.7 °F /  5.4 °C 29.9 in /  1012.8 hPa West 1 mph /  1.6 km/h 2 mph /  3.2 km/h 28 % 0 in /  0.0 mm
18:47 90.9 °F /  32.7 °C 49.1 °F /  9.5 °C 29.8 in /  1010.0 hPa SW 6.9 mph /  11.1 km/h 6.9 mph /  11.1 km/h 24 % 0 in /  0.0 mm
18:52 89.6 °F /  32.0 °C 48 °F /  8.9 °C 29.8 in /  1010.0 hPa SSW 11.5 mph /  18.5 km/h 11.5 mph /  18.5 km/h 24 % 0 in /  0.0 mm
18:55 77.2 °F /  25.1 °C 41.5 °F /  5.3 °C 29.9 in /  1012.8 hPa Calm   2 mph /  3.2 km/h 28 % 0 in /  0.0 mm
18:57 89.8 °F /  32.1 °C 48.2 °F /  9.0 °C 29.8 in /  1010.0 hPa SW 8.1 mph /  13.0 km/h 8.1 mph /  13.0 km/h 24 % 0 in /  0.0 mm
19:02 90 °F /  32.2 °C 48.4 °F /  9.1 °C 29.8 in /  1010.0 hPa SW 5.8 mph /  9.3 km/h 5.8 mph /  9.3 km/h 24 % 0 in /  0.0 mm
19:07 89.6 °F /  32.0 °C 48 °F /  8.9 °C 29.8 in /  1010.0 hPa WSW 8.1 mph /  13.0 km/h 8.1 mph /  13.0 km/h 24 % 0 in /  0.0 mm
19:12 89.4 °F /  31.9 °C 47.8 °F /  8.8 °C 29.8 in /  1010.0 hPa SW 11.5 mph /  18.5 km/h 11.5 mph /  18.5 km/h 24 % 0 in /  0.0 mm
19:15 76.6 °F /  24.8 °C 43 °F /  6.1 °C 29.9 in /  1012.8 hPa Calm     30 % 0 in /  0.0 mm
19:17 89.1 °F /  31.7 °C 47.7 °F /  8.7 °C 29.8 in /  1010.0 hPa SW 6.9 mph /  11.1 km/h 6.9 mph /  11.1 km/h 24 % 0 in /  0.0 mm
19:22 88.9 °F /  31.6 °C 47.5 °F /  8.6 °C 29.8 in /  1010.0 hPa SSW 6.9 mph /  11.1 km/h 6.9 mph /  11.1 km/h 24 % 0 in /  0.0 mm
19:25 76.5 °F /  24.7 °C 42.6 °F /  5.9 °C 29.9 in /  1012.8 hPa Calm   1 mph /  1.6 km/h 30 % 0 in /  0.0 mm
19:27 88.7 °F /  31.5 °C 47.3 °F /  8.5 °C 29.8 in /  1010.0 hPa SSW 8.1 mph /  13.0 km/h 8.1 mph /  13.0 km/h 24 % 0 in /  0.0 mm
19:32 88 °F /  31.1 °C 46.8 °F /  8.2 °C 29.8 in /  1010.0 hPa WSW 7.4 mph /  11.9 km/h 7.4 mph /  11.9 km/h 24 % 0 in /  0.0 mm
19:35 76.3 °F /  24.6 °C 42.6 °F /  5.9 °C 29.9 in /  1012.8 hPa Calm     30 % 0 in /  0.0 mm
19:37 87.6 °F /  30.9 °C 46.4 °F /  8.0 °C 29.8 in /  1010.0 hPa SW 5.8 mph /  9.3 km/h 5.8 mph /  9.3 km/h 24 % 0 in /  0.0 mm
19:42 87.3 °F /  30.7 °C 46 °F /  7.8 °C 29.8 in /  1010.0 hPa WSW 9.2 mph /  14.8 km/h 9.2 mph /  14.8 km/h 24 % 0 in /  0.0 mm
19:45 75.9 °F /  24.4 °C 43.2 °F /  6.2 °C 29.9 in /  1012.8 hPa Calm     31 % 0 in /  0.0 mm
19:47 87.1 °F /  30.6 °C 45.9 °F /  7.7 °C 29.8 in /  1010.0 hPa SW 10.4 mph /  16.7 km/h 10.4 mph /  16.7 km/h 24 % 0 in /  0.0 mm
19:52 87.1 °F /  30.6 °C 45.9 °F /  7.7 °C 29.8 in /  1010.0 hPa SW 5.8 mph /  9.3 km/h 5.8 mph /  9.3 km/h 24 % 0 in /  0.0 mm
19:55 75.2 °F /  24.0 °C 43.3 °F /  6.3 °C 29.9 in /  1012.8 hPa Calm     32 % 0 in /  0.0 mm
19:57 86.9 °F /  30.5 °C 45.9 °F /  7.7 °C 29.8 in /  1010.0 hPa SSW 5.8 mph /  9.3 km/h 5.8 mph /  9.3 km/h 24 % 0 in /  0.0 mm
20:02 86.7 °F /  30.4 °C 45.7 °F /  7.6 °C 29.8 in /  1010.0 hPa SW 8.1 mph /  13.0 km/h 8.1 mph /  13.0 km/h 24 % 0 in /  0.0 mm
20:05 74.5 °F /  23.6 °C 42.6 °F /  5.9 °C 29.9 in /  1012.8 hPa SSW 1 mph /  1.6 km/h 2 mph /  3.2 km/h 32 % 0 in /  0.0 mm
20:07 86.5 °F /  30.3 °C 45.5 °F /  7.5 °C 29.8 in /  1010.0 hPa WSW 10.5 mph /  16.9 km/h 10.5 mph /  16.9 km/h 24 % 0 in /  0.0 mm
20:12 86.2 °F /  30.1 °C 45.1 °F /  7.3 °C 29.8 in /  1010.0 hPa WSW 8.1 mph /  13.0 km/h 8.1 mph /  13.0 km/h 24 % 0 in /  0.0 mm
20:15 74.5 °F /  23.6 °C 43.5 °F /  6.4 °C 29.9 in /  1012.8 hPa Calm   1 mph /  1.6 km/h 33 % 0 in /  0.0 mm
20:18 86 °F /  30.0 °C 43.9 °F /  6.6 °C 29.8 in /  1010.0 hPa SW 6.9 mph /  11.1 km/h 6.9 mph /  11.1 km/h 23 % 0 in /  0.0 mm
20:23 85.8 °F /  29.9 °C 44.8 °F /  7.1 °C 29.8 in /  1010.0 hPa SSW 5.9 mph /  9.5 km/h 5.9 mph /  9.5 km/h 24 % 0 in /  0.0 mm
20:25 74.3 °F /  23.5 °C 43.3 °F /  6.3 °C 29.9 in /  1013.8 hPa NW 1 mph /  1.6 km/h 1 mph /  1.6 km/h 33 % 0 in /  0.0 mm
20:28 85.6 °F /  29.8 °C 44.8 °F /  7.1 °C 29.8 in /  1010.0 hPa WSW 9.2 mph /  14.8 km/h 9.2 mph /  14.8 km/h 24 % 0 in /  0.0 mm
20:33 85.5 °F /  29.7 °C 44.4 °F /  6.9 °C 29.8 in /  1010.7 hPa SSW 5.8 mph /  9.3 km/h 5.8 mph /  9.3 km/h 24 % 0 in /  0.0 mm
20:35 73.9 °F /  23.3 °C 44.4 °F /  6.9 °C 29.9 in /  1013.8 hPa NNW 1 mph /  1.6 km/h 2 mph /  3.2 km/h 35 % 0 in /  0.0 mm
20:38 85.1 °F /  29.5 °C 44.2 °F /  6.8 °C 29.8 in /  1010.7 hPa SW 5.8 mph /  9.3 km/h 5.8 mph /  9.3 km/h 24 % 0 in /  0.0 mm
20:43 84.9 °F /  29.4 °C 44.1 °F /  6.7 °C 29.8 in /  1010.7 hPa SSW 5.8 mph /  9.3 km/h 5.8 mph /  9.3 km/h 24 % 0 in /  0.0 mm
20:45 73.8 °F /  23.2 °C 44.4 °F /  6.9 °C 29.9 in /  1013.8 hPa Calm   3 mph /  4.8 km/h 35 % 0 in /  0.0 mm
20:48 84.6 °F /  29.2 °C 43.9 °F /  6.6 °C 29.8 in /  1010.7 hPa SW 4.6 mph /  7.4 km/h 4.6 mph /  7.4 km/h 24 % 0 in /  0.0 mm
20:53 84.4 °F /  29.1 °C 43.5 °F /  6.4 °C 29.8 in /  1010.7 hPa South 5.8 mph /  9.3 km/h 5.8 mph /  9.3 km/h 24 % 0 in /  0.0 mm
20:55 73.6 °F /  23.1 °C 44.2 °F /  6.8 °C 29.9 in /  1013.8 hPa Calm     35 % 0 in /  0.0 mm
20:58 84 °F /  28.9 °C 44.4 °F /  6.9 °C 29.8 in /  1010.7 hPa SW 5.8 mph /  9.3 km/h 5.8 mph /  9.3 km/h 25 % 0 in /  0.0 mm
21:03 83.8 °F /  28.8 °C 44.2 °F /  6.8 °C 29.9 in /  1011.7 hPa SSW 4.6 mph /  7.4 km/h 4.6 mph /  7.4 km/h 25 % 0 in /  0.0 mm
21:05 73.4 °F /  23.0 °C 44.8 °F /  7.1 °C 29.9 in /  1013.8 hPa Calm     36 % 0 in /  0.0 mm
21:08 83.5 °F /  28.6 °C 43.9 °F /  6.6 °C 29.9 in /  1011.7 hPa SW 5.8 mph /  9.3 km/h 5.8 mph /  9.3 km/h 25 % 0 in /  0.0 mm
21:13 83.1 °F /  28.4 °C 43.5 °F /  6.4 °C 29.9 in /  1011.7 hPa SW 3.5 mph /  5.6 km/h 3.5 mph /  5.6 km/h 25 % 0 in /  0.0 mm
21:15 72.9 °F /  22.7 °C 45.9 °F /  7.7 °C 29.9 in /  1012.8 hPa Calm     38 % 0 in /  0.0 mm
21:18 82.9 °F /  28.3 °C 43.5 °F /  6.4 °C 29.9 in /  1011.7 hPa SW 5.8 mph /  9.3 km/h 5.8 mph /  9.3 km/h 25 % 0 in /  0.0 mm
21:23 82.8 °F /  28.2 °C 43.3 °F /  6.3 °C 29.9 in /  1011.7 hPa SW 5.8 mph /  9.3 km/h 5.8 mph /  9.3 km/h 25 % 0 in /  0.0 mm
21:25 72.5 °F /  22.5 °C 46 °F /  7.8 °C 29.9 in /  1012.8 hPa Calm     39 % 0 in /  0.0 mm
21:28 82.4 °F /  28.0 °C 42.1 °F /  5.6 °C 29.9 in /  1011.7 hPa SW 3.5 mph /  5.6 km/h 3.5 mph /  5.6 km/h 24 % 0 in /  0.0 mm
21:33 82 °F /  27.8 °C 42.6 °F /  5.9 °C 29.9 in /  1011.7 hPa SW 3.5 mph /  5.6 km/h 3.5 mph /  5.6 km/h 25 % 0 in /  0.0 mm
21:35 72.1 °F /  22.3 °C 45.9 °F /  7.7 °C 29.9 in /  1012.8 hPa Calm   1 mph /  1.6 km/h 39 % 0 in /  0.0 mm
21:38 81.9 °F /  27.7 °C 42.6 °F /  5.9 °C 29.9 in /  1011.7 hPa SW 2.9 mph /  4.7 km/h 2.9 mph /  4.7 km/h 25 % 0 in /  0.0 mm
21:43 81.7 °F /  27.6 °C 42.4 °F /  5.8 °C 29.9 in /  1011.7 hPa WSW 3.5 mph /  5.6 km/h 3.5 mph /  5.6 km/h 25 % 0 in /  0.0 mm
21:45 72.1 °F /  22.3 °C 46.6 °F /  8.1 °C 29.9 in /  1012.8 hPa Calm   1 mph /  1.6 km/h 40 % 0 in /  0.0 mm
21:48 81.3 °F /  27.4 °C 42.1 °F /  5.6 °C 29.9 in /  1011.7 hPa SW 2.3 mph /  3.7 km/h 2.3 mph /  3.7 km/h 25 % 0 in /  0.0 mm
21:53 81 °F /  27.2 °C 41.7 °F /  5.4 °C 29.9 in /  1011.7 hPa SW 2.4 mph /  3.9 km/h 2.4 mph /  3.9 km/h 25 % 0 in /  0.0 mm
21:55 72 °F /  22.2 °C 46.2 °F /  7.9 °C 29.9 in /  1012.8 hPa Calm     40 % 0 in /  0.0 mm
21:58 80.8 °F /  27.1 °C 41.7 °F /  5.4 °C 29.9 in /  1011.7 hPa SW 3.5 mph /  5.6 km/h 3.5 mph /  5.6 km/h 25 % 0 in /  0.0 mm
22:03 80.6 °F /  27.0 °C 42.4 °F /  5.8 °C 29.9 in /  1011.7 hPa SW 2.3 mph /  3.7 km/h 2.3 mph /  3.7 km/h 26 % 0 in /  0.0 mm
22:05 71.8 °F /  22.1 °C 46.2 °F /  7.9 °C 29.9 in /  1012.8 hPa Calm   1 mph /  1.6 km/h 40 % 0 in /  0.0 mm
22:08 80.2 °F /  26.8 °C 42.3 °F /  5.7 °C 29.9 in /  1011.7 hPa SW 2.4 mph /  3.9 km/h 2.4 mph /  3.9 km/h 26 % 0 in /  0.0 mm
22:13 79.9 °F /  26.6 °C 41.9 °F /  5.5 °C 29.9 in /  1011.7 hPa SSW 2.3 mph /  3.7 km/h 2.3 mph /  3.7 km/h 26 % 0 in /  0.0 mm
22:15 71.8 °F /  22.1 °C 46.2 °F /  7.9 °C 29.9 in /  1011.7 hPa Calm   1 mph /  1.6 km/h 40 % 0 in /  0.0 mm
22:18 79.7 °F /  26.5 °C 41.7 °F /  5.4 °C 29.9 in /  1011.7 hPa SW 2.3 mph /  3.7 km/h 2.3 mph /  3.7 km/h 26 % 0 in /  0.0 mm
22:23 79.5 °F /  26.4 °C 41.5 °F /  5.3 °C 29.9 in /  1011.7 hPa WSW 2.4 mph /  3.9 km/h 2.4 mph /  3.9 km/h 26 % 0 in /  0.0 mm
22:25 71.6 °F /  22.0 °C 46.6 °F /  8.1 °C 29.9 in /  1011.7 hPa Calm   2 mph /  3.2 km/h 41 % 0 in /  0.0 mm
22:28 79.3 °F /  26.3 °C 41.5 °F /  5.3 °C 29.9 in /  1011.7 hPa WSW 3.5 mph /  5.6 km/h 3.5 mph /  5.6 km/h 26 % 0 in /  0.0 mm
22:33 79.2 °F /  26.2 °C 42.3 °F /  5.7 °C 29.9 in /  1011.7 hPa WSW 2.4 mph /  3.9 km/h 2.4 mph /  3.9 km/h 27 % 0 in /  0.0 mm
22:35 71.1 °F /  21.7 °C 46.2 °F /  7.9 °C 29.9 in /  1011.7 hPa NE 1 mph /  1.6 km/h 1 mph /  1.6 km/h 41 % 0 in /  0.0 mm
22:38 79 °F /  26.1 °C 42.1 °F /  5.6 °C 29.9 in /  1011.7 hPa WSW 2.3 mph /  3.7 km/h 2.3 mph /  3.7 km/h 27 % 0 in /  0.0 mm
22:43 78.6 °F /  25.9 °C 41.7 °F /  5.4 °C 29.9 in /  1011.7 hPa WSW 2.3 mph /  3.7 km/h 2.3 mph /  3.7 km/h 27 % 0 in /  0.0 mm
22:45 70.5 °F /  21.4 °C 45.7 °F /  7.6 °C 29.9 in /  1011.7 hPa Calm   2 mph /  3.2 km/h 41 % 0 in /  0.0 mm
22:48 78.4 °F /  25.8 °C 41.7 °F /  5.4 °C 29.9 in /  1012.8 hPa SW 2.3 mph /  3.7 km/h 2.3 mph /  3.7 km/h 27 % 0 in /  0.0 mm
22:53 78.3 °F /  25.7 °C 41.5 °F /  5.3 °C 29.9 in /  1012.8 hPa WSW 2.4 mph /  3.9 km/h 2.4 mph /  3.9 km/h 27 % 0 in /  0.0 mm
22:55 70.3 °F /  21.3 °C 46.2 °F /  7.9 °C 29.9 in /  1011.7 hPa Calm   1 mph /  1.6 km/h 42 % 0 in /  0.0 mm
22:58 78.1 °F /  25.6 °C 41.4 °F /  5.2 °C 29.9 in /  1012.8 hPa SW 2.3 mph /  3.7 km/h 2.3 mph /  3.7 km/h 27 % 0 in /  0.0 mm
23:03 77.9 °F /  25.5 °C 41.2 °F /  5.1 °C 29.9 in /  1011.7 hPa SW 3.5 mph /  5.6 km/h 3.5 mph /  5.6 km/h 27 % 0 in /  0.0 mm
23:05 69.6 °F /  20.9 °C 46 °F /  7.8 °C 29.9 in /  1011.7 hPa North 1 mph /  1.6 km/h 2 mph /  3.2 km/h 43 % 0 in /  0.0 mm
23:08 77.7 °F /  25.4 °C 41.2 °F /  5.1 °C 29.9 in /  1011.7 hPa West 2.3 mph /  3.7 km/h 2.3 mph /  3.7 km/h 27 % 0 in /  0.0 mm
23:15 69.3 °F /  20.7 °C 46.4 °F /  8.0 °C 29.9 in /  1011.7 hPa WSW 1 mph /  1.6 km/h 2 mph /  3.2 km/h 44 % 0 in /  0.0 mm
23:25 68.7 °F /  20.4 °C 45.9 °F /  7.7 °C 29.9 in /  1011.7 hPa SW 1 mph /  1.6 km/h 2 mph /  3.2 km/h 44 % 0 in /  0.0 mm
23:35 68.4 °F /  20.2 °C 46.2 °F /  7.9 °C 29.9 in /  1011.7 hPa Calm   2 mph /  3.2 km/h 45 % 0 in /  0.0 mm
23:45 68.4 °F /  20.2 °C 46.2 °F /  7.9 °C 29.9 in /  1011.7 hPa SW 1 mph /  1.6 km/h 2 mph /  3.2 km/h 45 % 0 in /  0.0 mm
23:55 67.8 °F /  19.9 °C 45.7 °F /  7.6 °C 29.9 in /  1011.7 hPa SW 2 mph /  3.2 km/h 2 mph /  3.2 km/h 45 % 0 in /  0.0 mm
23:59 77 °F /  25.0 °C 41.4 °F /  5.2 °C 29.9 in /  1012.8 hPa Calm     28 % 0 in /  0.0 mm
Meteo Sesrovires
Elogis d' Weather Underground - 3.5 mb

Guio original per  Jim McMurry - jmcmurry@mwt.net Adaptat per a la plantilla per  Wim van der Kuil - Leuven-Template.eu

Trobareu la nostra informacio del temps tambe a:

Weather Underground

AWEKAS